Time;durP1;ratioP1;P1;durP2;ratioP2;P2;SDS_P1;SDS_P2;PMS_P1;PMS_P2;Temp;Humidity;BMP_temperature;BMP_pressure;BME280_temperature;BME280_humidity;BME280_pressure;Samples;Min_cycle;Max_cycle;Signal;HPM_P1;HPM_P2
2022/07/21 00:02:06;;;;;;;9.48;8.57;;;;;;;;;;5139790;27;20488;-64
2022/07/21 00:04:34;;;;;;;9.77;8.75;;;;;;;;;;5140150;27;20293;-64
2022/07/21 00:07:01;;;;;;;10.00;9.20;;;;;;;;;;5138309;27;20261;-64
2022/07/21 00:09:29;;;;;;;10.18;8.68;;;;;;;;;;5139204;27;20202;-64
2022/07/21 00:11:58;;;;;;;9.50;8.60;;;;;;;;;;5139605;27;20202;-64
2022/07/21 00:14:26;;;;;;;10.82;9.82;;;;;;;;;;5139072;27;20202;-64
2022/07/21 00:16:53;;;;;;;9.57;8.70;;;;;;;;;;5139473;27;20475;-64
2022/07/21 00:19:21;;;;;;;9.80;9.00;;;;;;;;;;5139241;27;20284;-65
2022/07/21 00:21:49;;;;;;;8.88;8.18;;;;;;;;;;5139250;27;20206;-67
2022/07/21 00:24:16;;;;;;;9.20;8.38;;;;;;;;;;5139203;27;20208;-65
2022/07/21 00:26:44;;;;;;;9.07;8.30;;;;;;;;;;5138975;27;20609;-64
2022/07/21 00:29:12;;;;;;;9.43;8.73;;;;;;;;;;5139605;27;20226;-65
2022/07/21 00:31:40;;;;;;;9.10;8.30;;;;;;;;;;5139260;27;20217;-65
2022/07/21 00:34:08;;;;;;;8.68;8.07;;;;;;;;;;5139526;27;20296;-65
2022/07/21 00:36:35;;;;;;;9.50;8.70;;;;;;;;;;5139403;27;20237;-65
2022/07/21 00:39:03;;;;;;;9.52;8.70;;;;;;;;;;5130609;27;20621;-65
2022/07/21 00:41:30;;;;;;;9.00;8.38;;;;;;;;;;5139449;27;20212;-64
2022/07/21 00:43:57;;;;;;;9.05;8.15;;;;;;;;;;5139260;27;20210;-65
2022/07/21 00:46:26;;;;;;;9.70;8.75;;;;;;;;;;5138849;27;20253;-64
2022/07/21 00:48:54;;;;;;;9.05;8.38;;;;;;;;;;5138824;27;20297;-64
2022/07/21 00:51:21;;;;;;;9.00;8.30;;;;;;;;;;5139185;27;20298;-64
2022/07/21 00:53:49;;;;;;;8.80;8.10;;;;;;;;;;5139626;27;20298;-65
2022/07/21 00:56:16;;;;;;;8.27;7.55;;;;;;;;;;5138955;28;20298;-65
2022/07/21 00:58:44;;;;;;;8.48;7.80;;;;;;;;;;5138999;27;20238;-65
2022/07/21 01:01:11;;;;;;;8.40;7.70;;;;;;;;;;5138949;27;20208;-64
2022/07/21 01:03:40;;;;;;;8.60;7.90;;;;;;;;;;5138944;27;20652;-64
2022/07/21 01:06:08;;;;;;;8.88;8.20;;;;;;;;;;5138980;27;20202;-65
2022/07/21 01:08:35;;;;;;;8.98;8.18;;;;;;;;;;5138391;27;20301;-64
2022/07/21 01:11:03;;;;;;;8.80;7.70;;;;;;;;;;5138566;28;20213;-65
2022/07/21 01:13:31;;;;;;;9.57;8.77;;;;;;;;;;5138553;27;20553;-65
2022/07/21 01:15:58;;;;;;;9.38;8.55;;;;;;;;;;5138668;28;20206;-65
2022/07/21 01:18:26;;;;;;;8.88;8.13;;;;;;;;;;5139485;27;20269;-65
2022/07/21 01:20:55;;;;;;;8.40;7.78;;;;;;;;;;5143076;27;20227;-65
2022/07/21 01:23:24;;;;;;;9.60;8.80;;;;;;;;;;5143029;27;20238;-64
2022/07/21 01:25:52;;;;;;;8.98;8.27;;;;;;;;;;5143285;27;20206;-64
2022/07/21 01:28:19;;;;;;;9.80;9.10;;;;;;;;;;5142463;27;20233;-65
2022/07/21 01:30:47;;;;;;;8.27;7.68;;;;;;;;;;5142425;27;20202;-65
2022/07/21 01:33:14;;;;;;;8.80;8.10;;;;;;;;;;5142385;27;20206;-65
2022/07/21 01:35:42;;;;;;;9.70;8.93;;;;;;;;;;5142704;27;20225;-65
2022/07/21 01:41:28;;;;;;;9.13;8.43;;;;;;;;;;5142482;27;20222;-65
2022/07/21 01:43:45;;;;;;;8.82;8.13;;;;;;;;;;5142444;27;20205;-65
2022/07/21 01:46:13;;;;;;;9.02;8.38;;;;;;;;;;5142398;27;20237;-65
2022/07/21 01:48:42;;;;;;;8.32;7.72;;;;;;;;;;5142129;27;20214;-64
2022/07/21 01:51:10;;;;;;;8.77;8.18;;;;;;;;;;5142060;27;20202;-66
2022/07/21 01:53:37;;;;;;;8.27;7.72;;;;;;;;;;5142187;27;20319;-65
2022/07/21 01:56:08;;;;;;;8.57;7.78;;;;;;;;;;5141806;27;20476;-71
2022/07/21 01:58:36;;;;;;;9.20;8.40;;;;;;;;;;5141910;27;20278;-66
2022/07/21 02:01:03;;;;;;;8.80;8.05;;;;;;;;;;5142195;27;20216;-65
2022/07/21 02:03:30;;;;;;;9.13;8.43;;;;;;;;;;5142166;27;20297;-65
2022/07/21 02:06:01;;;;;;;9.23;8.48;;;;;;;;;;5142145;27;20289;-65
2022/07/21 02:08:29;;;;;;;9.30;8.52;;;;;;;;;;5141811;27;20236;-65
2022/07/21 02:10:57;;;;;;;8.63;8.02;;;;;;;;;;5141517;27;20232;-65
2022/07/21 02:13:26;;;;;;;8.20;7.60;;;;;;;;;;5141781;27;20294;-65
2022/07/21 02:15:53;;;;;;;9.10;8.25;;;;;;;;;;5142029;27;20203;-70
2022/07/21 02:18:20;;;;;;;8.45;7.82;;;;;;;;;;5142044;27;20245;-65
2022/07/21 02:20:48;;;;;;;8.18;7.57;;;;;;;;;;5141630;27;20476;-65
2022/07/21 02:23:16;;;;;;;8.68;8.07;;;;;;;;;;5141898;27;20505;-66
2022/07/21 02:25:43;;;;;;;8.43;7.82;;;;;;;;;;5141275;27;20213;-65
2022/07/21 02:28:11;;;;;;;8.43;7.82;;;;;;;;;;5141809;27;20248;-65
2022/07/21 02:30:40;;;;;;;8.77;8.18;;;;;;;;;;5140289;27;20293;-64
2022/07/21 02:33:08;;;;;;;8.30;7.70;;;;;;;;;;5141529;27;20194;-65
2022/07/21 02:35:36;;;;;;;8.07;7.35;;;;;;;;;;5141579;27;20212;-65
2022/07/21 02:38:04;;;;;;;8.13;7.50;;;;;;;;;;5141247;27;20205;-65
2022/07/21 02:40:32;;;;;;;7.97;7.38;;;;;;;;;;5141503;27;20281;-65
2022/07/21 02:42:59;;;;;;;8.52;7.93;;;;;;;;;;5141507;27;20237;-65
2022/07/21 02:45:27;;;;;;;8.23;7.53;;;;;;;;;;5141513;27;20538;-69
2022/07/21 02:47:57;;;;;;;8.70;8.00;;;;;;;;;;5141452;27;20233;-65
2022/07/21 02:50:27;;;;;;;8.30;7.70;;;;;;;;;;5141159;27;20297;-65
2022/07/21 02:52:56;;;;;;;8.18;7.57;;;;;;;;;;5141106;27;20202;-66
2022/07/21 02:55:23;;;;;;;7.88;7.38;;;;;;;;;;5140966;27;20221;-65
2022/07/21 02:57:51;;;;;;;7.97;7.35;;;;;;;;;;5140823;27;20199;-66
2022/07/21 03:00:18;;;;;;;8.30;7.70;;;;;;;;;;5140706;27;20289;-65
2022/07/21 03:02:46;;;;;;;8.02;7.43;;;;;;;;;;5140653;27;20577;-65
2022/07/21 03:05:16;;;;;;;8.00;7.40;;;;;;;;;;5141145;27;20212;-65
2022/07/21 03:07:44;;;;;;;8.32;7.72;;;;;;;;;;5140701;27;20265;-66
2022/07/21 03:10:11;;;;;;;8.18;7.53;;;;;;;;;;5140943;27;20301;-65
2022/07/21 03:12:39;;;;;;;7.78;7.28;;;;;;;;;;5140490;27;20203;-65
2022/07/21 03:15:06;;;;;;;8.32;7.72;;;;;;;;;;5140940;27;20225;-65
2022/07/21 03:17:34;;;;;;;7.72;7.22;;;;;;;;;;5140952;27;20285;-65
2022/07/21 03:20:02;;;;;;;7.60;7.10;;;;;;;;;;5140707;27;20593;-65
2022/07/21 03:22:31;;;;;;;7.88;7.28;;;;;;;;;;5140399;27;20202;-66
2022/07/21 03:24:58;;;;;;;7.47;6.97;;;;;;;;;;5140542;27;20207;-66
2022/07/21 03:27:25;;;;;;;8.02;7.32;;;;;;;;;;5140323;27;20247;-65
2022/07/21 03:29:53;;;;;;;7.55;7.05;;;;;;;;;;5139957;27;20202;-65
2022/07/21 03:32:20;;;;;;;7.32;6.82;;;;;;;;;;5140059;27;20229;-65
2022/07/21 03:34:48;;;;;;;8.15;7.55;;;;;;;;;;5137395;27;20194;-67
2022/07/21 03:37:15;;;;;;;8.15;7.53;;;;;;;;;;5138563;27;20202;-65
2022/07/21 03:39:44;;;;;;;7.97;7.47;;;;;;;;;;5139315;27;20198;-65
2022/07/21 03:42:11;;;;;;;7.75;7.25;;;;;;;;;;5137648;27;20202;-65
2022/07/21 03:44:39;;;;;;;7.80;7.20;;;;;;;;;;5137590;27;20205;-65
2022/07/21 03:47:06;;;;;;;7.22;6.72;;;;;;;;;;5139014;27;20206;-65
2022/07/21 03:49:34;;;;;;;7.43;6.93;;;;;;;;;;5137498;27;20206;-65
2022/07/21 03:52:01;;;;;;;7.90;7.30;;;;;;;;;;5138801;27;20198;-65
2022/07/21 03:54:28;;;;;;;7.50;7.00;;;;;;;;;;5138209;27;20263;-65
2022/07/21 03:56:57;;;;;;;7.55;7.05;;;;;;;;;;5138820;27;20198;-65
2022/07/21 03:59:25;;;;;;;7.40;6.90;;;;;;;;;;5139608;27;20202;-65
2022/07/21 04:01:52;;;;;;;7.28;6.78;;;;;;;;;;5138636;27;20259;-65
2022/07/21 04:04:19;;;;;;;7.07;6.57;;;;;;;;;;5137870;27;20205;-65
2022/07/21 04:06:46;;;;;;;7.85;7.25;;;;;;;;;;5136836;27;20210;-65
2022/07/21 04:09:14;;;;;;;7.10;6.60;;;;;;;;;;5139185;27;20233;-64
2022/07/21 04:11:41;;;;;;;7.20;6.70;;;;;;;;;;5137960;27;20198;-64
2022/07/21 04:14:10;;;;;;;7.32;6.80;;;;;;;;;;5138672;27;20259;-65
2022/07/21 04:16:37;;;;;;;7.20;6.70;;;;;;;;;;5137990;27;20270;-64
2022/07/21 04:19:04;;;;;;;6.72;6.28;;;;;;;;;;5137422;27;20623;-65
2022/07/21 04:21:32;;;;;;;6.88;6.38;;;;;;;;;;5137441;27;20235;-64
2022/07/21 04:23:59;;;;;;;7.20;6.70;;;;;;;;;;5138245;27;20199;-65
2022/07/21 04:26:27;;;;;;;6.60;6.10;;;;;;;;;;5138602;27;20255;-64
2022/07/21 04:28:55;;;;;;;7.38;6.88;;;;;;;;;;5137973;27;20325;-65
2022/07/21 04:31:24;;;;;;;6.97;6.47;;;;;;;;;;5137985;27;20202;-65
2022/07/21 04:33:51;;;;;;;7.45;6.95;;;;;;;;;;5135742;27;20195;-65
2022/07/21 04:36:18;;;;;;;7.30;6.80;;;;;;;;;;5136344;27;20651;-65
2022/07/21 04:38:45;;;;;;;6.80;6.30;;;;;;;;;;5137348;27;20190;-65
2022/07/21 04:41:13;;;;;;;7.28;6.78;;;;;;;;;;5137169;27;20597;-65
2022/07/21 04:43:41;;;;;;;6.95;6.40;;;;;;;;;;5136718;27;20252;-66
2022/07/21 04:46:08;;;;;;;7.13;6.53;;;;;;;;;;5137481;27;20206;-65
2022/07/21 04:48:37;;;;;;;6.97;6.47;;;;;;;;;;5137693;27;20286;-65
2022/07/21 04:51:04;;;;;;;6.50;6.05;;;;;;;;;;5137864;27;20206;-65
2022/07/21 04:53:32;;;;;;;7.00;6.45;;;;;;;;;;5128383;27;20191;-65
2022/07/21 04:55:59;;;;;;;7.07;6.57;;;;;;;;;;5137783;28;20236;-64
2022/07/21 04:58:26;;;;;;;6.95;6.50;;;;;;;;;;5138053;28;20190;-64
2022/07/21 05:00:53;;;;;;;7.10;6.50;;;;;;;;;;5137656;28;20199;-64
2022/07/21 05:03:21;;;;;;;6.25;5.85;;;;;;;;;;5137375;28;20206;-64
2022/07/21 05:05:50;;;;;;;6.55;6.15;;;;;;;;;;5119121;27;20194;-64
2022/07/21 05:08:17;;;;;;;6.70;6.20;;;;;;;;;;5137334;27;20218;-64
2022/07/21 05:10:44;;;;;;;6.97;6.47;;;;;;;;;;5136627;28;20259;-64
2022/07/21 05:13:12;;;;;;;6.32;5.82;;;;;;;;;;5137750;28;20207;-64
2022/07/21 05:15:39;;;;;;;6.90;6.40;;;;;;;;;;5134651;27;20505;-64
2022/07/21 05:18:09;;;;;;;6.85;6.35;;;;;;;;;;5137295;27;20650;-64
2022/07/21 05:20:36;;;;;;;7.05;6.55;;;;;;;;;;5136214;28;20214;-65
2022/07/21 05:23:05;;;;;;;6.57;6.15;;;;;;;;;;5135456;27;20198;-65
2022/07/21 05:25:35;;;;;;;6.65;6.15;;;;;;;;;;5135887;27;20251;-64
2022/07/21 05:28:02;;;;;;;6.40;6.00;;;;;;;;;;5136954;28;20234;-64
2022/07/21 05:30:30;;;;;;;6.85;6.25;;;;;;;;;;5136217;28;20206;-65
2022/07/21 05:32:57;;;;;;;6.80;6.30;;;;;;;;;;5136194;28;20251;-65
2022/07/21 05:35:25;;;;;;;6.40;6.00;;;;;;;;;;5134034;28;20225;-65
2022/07/21 05:37:52;;;;;;;6.65;6.15;;;;;;;;;;5136700;28;20191;-66
2022/07/21 05:40:20;;;;;;;6.68;6.18;;;;;;;;;;5135267;27;20206;-65
2022/07/21 05:42:48;;;;;;;7.00;6.50;;;;;;;;;;5136475;28;20195;-64
2022/07/21 05:45:16;;;;;;;6.97;6.47;;;;;;;;;;5135949;28;20607;-65
2022/07/21 05:47:43;;;;;;;6.55;6.05;;;;;;;;;;5136154;27;20209;-65
2022/07/21 05:50:11;;;;;;;6.40;5.90;;;;;;;;;;5136324;28;20263;-65
2022/07/21 05:52:38;;;;;;;6.28;5.80;;;;;;;;;;5136329;28;20276;-65
2022/07/21 05:55:06;;;;;;;6.68;6.28;;;;;;;;;;5135810;27;20263;-65
2022/07/21 05:57:35;;;;;;;7.10;6.50;;;;;;;;;;5136171;28;20263;-65
2022/07/21 06:00:04;;;;;;;6.03;5.63;;;;;;;;;;5128114;28;20209;-65
2022/07/21 06:02:32;;;;;;;6.53;6.13;;;;;;;;;;5123226;28;20213;-65
2022/07/21 06:05:00;;;;;;;6.28;5.78;;;;;;;;;;5135056;27;20752;-65
2022/07/21 06:07:28;;;;;;;6.35;5.88;;;;;;;;;;5139908;27;20534;-65
2022/07/21 06:09:55;;;;;;;6.60;6.10;;;;;;;;;;5144365;27;20542;-65
2022/07/21 06:12:23;;;;;;;6.20;5.70;;;;;;;;;;5138975;27;20335;-65
2022/07/21 06:14:51;;;;;;;6.50;6.00;;;;;;;;;;5127886;27;20206;-65
2022/07/21 06:17:19;;;;;;;5.43;5.13;;;;;;;;;;5118433;28;20264;-65
2022/07/21 06:19:46;;;;;;;5.70;5.30;;;;;;;;;;5118008;28;20195;-65
2022/07/21 06:22:13;;;;;;;6.03;5.63;;;;;;;;;;5119691;28;20524;-65
2022/07/21 06:24:40;;;;;;;6.03;5.60;;;;;;;;;;5119715;28;20265;-66
2022/07/21 06:27:08;;;;;;;5.57;5.18;;;;;;;;;;5118891;28;20202;-66
2022/07/21 06:29:35;;;;;;;6.00;5.60;;;;;;;;;;5118905;28;20600;-65
2022/07/21 06:32:04;;;;;;;6.05;5.55;;;;;;;;;;5125029;27;20586;-65
2022/07/21 06:34:31;;;;;;;6.10;5.70;;;;;;;;;;5139208;27;20203;-65
2022/07/21 06:36:59;;;;;;;5.95;5.55;;;;;;;;;;5139973;27;20202;-65
2022/07/21 06:39:26;;;;;;;5.80;5.40;;;;;;;;;;5139183;27;20190;-65
2022/07/21 06:41:53;;;;;;;5.97;5.57;;;;;;;;;;5138888;27;20206;-65
2022/07/21 06:44:20;;;;;;;5.10;4.70;;;;;;;;;;5139262;27;20199;-65
2022/07/21 06:46:48;;;;;;;5.20;4.90;;;;;;;;;;5138535;27;20259;-66
2022/07/21 06:49:16;;;;;;;5.82;5.32;;;;;;;;;;5138992;27;20226;-65
2022/07/21 06:51:44;;;;;;;5.47;5.07;;;;;;;;;;5119136;28;20247;-65
2022/07/21 06:54:11;;;;;;;5.28;4.93;;;;;;;;;;5117631;28;20203;-65
2022/07/21 06:56:38;;;;;;;4.85;4.55;;;;;;;;;;5117785;28;20203;-65
2022/07/21 06:59:06;;;;;;;5.60;5.20;;;;;;;;;;5117602;28;20206;-65
2022/07/21 07:01:33;;;;;;;5.65;5.25;;;;;;;;;;5117704;28;20222;-65
2022/07/21 07:04:01;;;;;;;5.43;5.05;;;;;;;;;;5117676;28;20221;-65
2022/07/21 07:06:29;;;;;;;5.93;5.53;;;;;;;;;;5118560;28;20211;-65
2022/07/21 07:08:57;;;;;;;5.57;5.18;;;;;;;;;;5117436;28;20253;-66
2022/07/21 07:11:24;;;;;;;5.75;5.22;;;;;;;;;;5117918;28;20648;-65
2022/07/21 07:13:51;;;;;;;5.60;5.10;;;;;;;;;;5117464;28;20214;-65
2022/07/21 07:16:18;;;;;;;5.40;5.05;;;;;;;;;;5116255;28;20603;-65
2022/07/21 07:18:46;;;;;;;5.50;5.10;;;;;;;;;;5116935;28;20195;-65
2022/07/21 07:21:13;;;;;;;5.80;5.40;;;;;;;;;;5116780;28;20575;-65
2022/07/21 07:23:42;;;;;;;5.85;5.45;;;;;;;;;;5116267;28;20540;-65
2022/07/21 07:26:10;;;;;;;5.53;5.13;;;;;;;;;;5119714;27;20207;-65
2022/07/21 07:28:37;;;;;;;5.38;4.88;;;;;;;;;;5136891;27;20230;-65
2022/07/21 07:31:04;;;;;;;4.93;4.53;;;;;;;;;;5137657;27;20202;-65
2022/07/21 07:33:32;;;;;;;5.40;4.90;;;;;;;;;;5137538;27;20206;-65
2022/07/21 07:35:59;;;;;;;5.28;4.88;;;;;;;;;;5137069;27;20203;-65
2022/07/21 07:38:26;;;;;;;5.68;5.28;;;;;;;;;;5136562;27;20199;-65
2022/07/21 07:40:55;;;;;;;5.85;5.45;;;;;;;;;;5137339;27;20214;-65
2022/07/21 07:43:22;;;;;;;5.75;5.28;;;;;;;;;;5136328;27;20198;-65
2022/07/21 07:45:50;;;;;;;5.57;5.18;;;;;;;;;;5136633;27;20232;-65
2022/07/21 07:48:17;;;;;;;5.82;5.40;;;;;;;;;;5137325;27;20261;-65
2022/07/21 07:50:45;;;;;;;6.00;5.60;;;;;;;;;;5137447;27;20202;-65
2022/07/21 07:53:12;;;;;;;6.07;5.57;;;;;;;;;;5137595;27;20202;-65
2022/07/21 07:55:39;;;;;;;5.85;5.45;;;;;;;;;;5137274;27;20210;-65
2022/07/21 07:58:08;;;;;;;6.28;5.78;;;;;;;;;;5137036;27;20558;-65
2022/07/21 08:00:35;;;;;;;5.93;5.43;;;;;;;;;;5136482;27;20202;-65
2022/07/21 08:03:02;;;;;;;5.80;5.30;;;;;;;;;;5136062;27;20198;-65
2022/07/21 08:05:30;;;;;;;6.15;5.65;;;;;;;;;;5136919;27;20202;-65
2022/07/21 08:07:57;;;;;;;5.15;4.75;;;;;;;;;;5135892;27;20209;-66
2022/07/21 08:10:25;;;;;;;6.35;5.85;;;;;;;;;;5136235;27;20217;-66
2022/07/21 08:12:52;;;;;;;6.20;5.70;;;;;;;;;;5136719;27;20230;-64
2022/07/21 08:15:21;;;;;;;6.50;6.00;;;;;;;;;;5136522;27;20201;-64
2022/07/21 08:17:48;;;;;;;6.18;5.60;;;;;;;;;;5137533;27;20202;-64
2022/07/21 08:20:16;;;;;;;6.15;5.75;;;;;;;;;;5136928;27;20588;-65
2022/07/21 08:22:43;;;;;;;5.72;5.28;;;;;;;;;;5136742;27;20646;-64
2022/07/21 08:25:10;;;;;;;6.95;6.45;;;;;;;;;;5135711;27;20210;-65
2022/07/21 08:27:38;;;;;;;6.47;6.00;;;;;;;;;;5119746;27;20226;-65
2022/07/21 08:30:06;;;;;;;6.32;5.82;;;;;;;;;;5115959;28;20621;-64
2022/07/21 08:32:35;;;;;;;6.88;6.30;;;;;;;;;;5115153;28;20264;-64
2022/07/21 08:35:02;;;;;;;6.43;6.03;;;;;;;;;;5115443;28;20213;-64
2022/07/21 08:37:30;;;;;;;6.80;6.22;;;;;;;;;;5115792;28;20264;-64
2022/07/21 08:39:57;;;;;;;6.47;6.07;;;;;;;;;;5115321;28;20194;-65
2022/07/21 08:42:24;;;;;;;6.80;6.22;;;;;;;;;;5115414;28;20214;-64
2022/07/21 08:44:52;;;;;;;6.15;5.75;;;;;;;;;;5116378;28;20210;-65
2022/07/21 08:47:19;;;;;;;6.68;6.18;;;;;;;;;;5116259;28;20264;-64
2022/07/21 08:49:49;;;;;;;6.22;5.75;;;;;;;;;;5115482;28;20223;-64
2022/07/21 08:52:16;;;;;;;6.72;6.22;;;;;;;;;;5116272;28;20305;-64
2022/07/21 08:54:43;;;;;;;6.40;5.90;;;;;;;;;;5114994;28;20202;-65
2022/07/21 08:57:11;;;;;;;6.65;6.25;;;;;;;;;;5115396;28;20203;-65
2022/07/21 08:59:38;;;;;;;7.05;6.45;;;;;;;;;;5115806;28;20191;-64
2022/07/21 09:02:06;;;;;;;6.32;5.93;;;;;;;;;;5115877;28;20531;-65
2022/07/21 09:04:34;;;;;;;7.00;6.50;;;;;;;;;;5115868;28;20194;-64
2022/07/21 09:07:03;;;;;;;6.90;6.30;;;;;;;;;;5115480;28;20203;-64
2022/07/21 09:09:32;;;;;;;7.10;6.60;;;;;;;;;;5115008;28;20235;-64
2022/07/21 09:12:00;;;;;;;6.70;6.20;;;;;;;;;;5115331;28;20203;-64
2022/07/21 09:14:28;;;;;;;6.55;6.10;;;;;;;;;;5115571;28;20202;-65
2022/07/21 09:16:57;;;;;;;6.63;6.13;;;;;;;;;;5115169;28;20263;-64
2022/07/21 09:19:27;;;;;;;6.85;6.35;;;;;;;;;;5115264;28;20284;-64
2022/07/21 09:21:55;;;;;;;6.78;6.28;;;;;;;;;;5115903;28;20199;-64
2022/07/21 09:24:28;;;;;;;7.22;6.65;;;;;;;;;;5114592;28;20206;-64
2022/07/21 09:27:17;;;;;;;7.13;6.55;;;;;;;;;;5123597;28;20195;-65
2022/07/21 09:29:46;;;;;;;6.57;6.18;;;;;;;;;;5130037;28;20226;-64
2022/07/21 09:32:15;;;;;;;6.35;5.95;;;;;;;;;;5135327;28;20255;-65
2022/07/21 09:34:42;;;;;;;6.88;6.38;;;;;;;;;;5136410;28;20735;-65
2022/07/21 09:37:10;;;;;;;6.60;6.10;;;;;;;;;;5135492;28;20213;-64
2022/07/21 09:39:49;;;;;;;6.55;6.05;;;;;;;;;;5137680;27;20198;-64
2022/07/21 09:42:21;;;;;;;6.28;5.70;;;;;;;;;;5140426;27;20210;-64
2022/07/21 09:44:50;;;;;;;6.90;6.30;;;;;;;;;;5139749;27;20194;-65
2022/07/21 09:47:18;;;;;;;6.47;6.00;;;;;;;;;;5140126;27;20305;-64
2022/07/21 09:49:46;;;;;;;6.80;6.38;;;;;;;;;;5139656;27;20739;-64
2022/07/21 09:52:24;;;;;;;7.18;6.57;;;;;;;;;;5139762;27;20201;-64
2022/07/21 09:54:53;;;;;;;6.60;6.10;;;;;;;;;;5139666;27;20210;-65
2022/07/21 09:57:21;;;;;;;7.68;6.85;;;;;;;;;;5138526;27;20590;-70
2022/07/21 09:59:49;;;;;;;7.13;6.53;;;;;;;;;;5138765;27;20206;-66
2022/07/21 10:02:18;;;;;;;7.72;6.93;;;;;;;;;;5138715;27;20213;-67
2022/07/21 10:04:47;;;;;;;8.25;7.57;;;;;;;;;;5138686;27;20208;-67
2022/07/21 10:07:15;;;;;;;8.10;7.22;;;;;;;;;;5134020;27;20203;-67
2022/07/21 10:09:42;;;;;;;8.25;7.30;;;;;;;;;;5118441;28;21107;-66
2022/07/21 10:12:11;;;;;;;7.75;7.10;;;;;;;;;;5117231;28;20211;-67
2022/07/21 10:14:38;;;;;;;8.35;7.65;;;;;;;;;;5116852;28;20223;-65
2022/07/21 10:17:06;;;;;;;9.05;7.82;;;;;;;;;;5118179;28;20543;-68
2022/07/21 10:19:36;;;;;;;9.20;8.40;;;;;;;;;;5118039;28;20198;-66
2022/07/21 10:22:06;;;;;;;9.77;8.88;;;;;;;;;;5118100;28;20214;-66
2022/07/21 10:24:34;;;;;;;8.88;8.18;;;;;;;;;;5118338;28;20232;-67
2022/07/21 10:27:06;;;;;;;9.02;8.32;;;;;;;;;;5117487;28;20202;-67
2022/07/21 10:29:54;;;;;;;9.27;8.50;;;;;;;;;;5133453;27;20234;-66
2022/07/21 10:32:24;;;;;;;9.75;8.90;;;;;;;;;;5137382;27;20202;-66
2022/07/21 10:34:52;;;;;;;9.63;8.80;;;;;;;;;;5138125;27;20661;-66
2022/07/21 10:37:47;;;;;;;9.57;8.77;;;;;;;;;;5137960;27;20247;-66
2022/07/21 10:40:33;;;;;;;10.30;9.40;;;;;;;;;;5074474;27;20206;-67
2022/07/21 10:43:15;;;;;;;10.25;9.45;;;;;;;;;;5137901;27;20202;-67
2022/07/21 10:45:44;;;;;;;9.95;9.10;;;;;;;;;;5137574;27;20210;-66
2022/07/21 10:48:31;;;;;;;9.95;9.20;;;;;;;;;;5137958;27;20198;-66
2022/07/21 10:50:59;;;;;;;9.95;9.23;;;;;;;;;;5137120;27;20287;-67
2022/07/21 10:53:27;;;;;;;9.73;8.93;;;;;;;;;;5138245;27;20802;-66
2022/07/21 10:55:55;;;;;;;10.45;9.68;;;;;;;;;;5137921;27;20286;-67
2022/07/21 10:58:26;;;;;;;9.45;8.73;;;;;;;;;;5137291;27;20194;-67
2022/07/21 11:00:56;;;;;;;9.82;9.02;;;;;;;;;;5137672;27;20585;-66
2022/07/21 11:03:28;;;;;;;9.80;9.10;;;;;;;;;;5137550;27;20301;-66
2022/07/21 11:06:15;;;;;;;10.57;9.77;;;;;;;;;;5137382;27;20207;-67
2022/07/21 11:08:43;;;;;;;11.15;10.15;;;;;;;;;;5137357;27;20206;-66
2022/07/21 11:11:11;;;;;;;10.73;9.82;;;;;;;;;;5136385;27;20514;-66
2022/07/21 11:13:56;;;;;;;10.48;9.68;;;;;;;;;;5137345;27;20672;-66
2022/07/21 11:16:46;;;;;;;11.27;10.40;;;;;;;;;;5121201;27;20206;-66
2022/07/21 11:19:28;;;;;;;10.50;9.70;;;;;;;;;;5136334;27;20263;-66
2022/07/21 11:21:55;;;;;;;11.13;10.25;;;;;;;;;;5137372;27;20206;-66
2022/07/21 11:24:23;;;;;;;10.43;9.73;;;;;;;;;;5137140;27;20210;-67
2022/07/21 11:26:55;;;;;;;11.75;10.85;;;;;;;;;;5137441;27;20198;-67
2022/07/21 11:29:22;;;;;;;10.90;10.10;;;;;;;;;;5136858;27;20303;-66
2022/07/21 11:31:51;;;;;;;11.73;10.70;;;;;;;;;;5137004;27;20202;-67
2022/07/21 11:34:18;;;;;;;11.48;10.52;;;;;;;;;;5137590;27;20198;-66
2022/07/21 11:36:45;;;;;;;11.85;10.95;;;;;;;;;;5136692;27;20210;-66
2022/07/21 11:39:14;;;;;;;11.57;10.63;;;;;;;;;;5137837;27;20274;-66
2022/07/21 11:41:42;;;;;;;11.27;10.45;;;;;;;;;;5137280;27;20472;-66
2022/07/21 11:44:10;;;;;;;11.82;10.93;;;;;;;;;;5136836;27;20203;-66
2022/07/21 11:46:46;;;;;;;11.68;10.77;;;;;;;;;;5136205;27;20213;-66
2022/07/21 11:49:15;;;;;;;11.95;11.05;;;;;;;;;;5136421;27;20209;-66
2022/07/21 11:51:47;;;;;;;12.52;11.57;;;;;;;;;;5137124;27;20312;-66
2022/07/21 11:54:26;;;;;;;11.63;10.73;;;;;;;;;;5136350;27;20259;-67
2022/07/21 11:56:53;;;;;;;11.82;10.95;;;;;;;;;;5136646;27;20206;-66
2022/07/21 11:59:21;;;;;;;12.35;11.20;;;;;;;;;;5137133;27;20209;-66
2022/07/21 12:01:52;;;;;;;11.40;10.40;;;;;;;;;;5136400;27;20210;-67
2022/07/21 12:04:34;;;;;;;12.13;11.20;;;;;;;;;;5136289;27;20263;-68
2022/07/21 12:07:02;;;;;;;12.15;11.18;;;;;;;;;;5135616;27;20198;-66
2022/07/21 12:09:30;;;;;;;12.30;11.40;;;;;;;;;;5136181;27;20207;-66
2022/07/21 12:11:58;;;;;;;11.40;10.43;;;;;;;;;;5135184;27;20210;-66
2022/07/21 12:14:40;;;;;;;11.60;10.73;;;;;;;;;;5136318;27;20243;-66
2022/07/21 12:17:07;;;;;;;10.98;10.07;;;;;;;;;;5135024;27;20279;-67
2022/07/21 12:19:35;;;;;;;10.50;9.70;;;;;;;;;;5135103;27;20263;-67
2022/07/21 12:22:03;;;;;;;10.35;9.55;;;;;;;;;;5135645;27;20268;-66
2022/07/21 12:24:52;;;;;;;10.20;9.40;;;;;;;;;;5135352;27;20198;-67
2022/07/21 12:27:19;;;;;;;10.23;9.50;;;;;;;;;;5121109;27;20198;-68
2022/07/21 12:29:47;;;;;;;9.73;8.93;;;;;;;;;;5115565;28;20199;-68
2022/07/21 12:32:14;;;;;;;10.18;9.15;;;;;;;;;;5114947;28;20669;-67
2022/07/21 12:34:51;;;;;;;9.38;8.73;;;;;;;;;;5115785;28;20203;-67
2022/07/21 12:37:19;;;;;;;8.95;8.27;;;;;;;;;;5115541;28;20210;-66
2022/07/21 12:40:02;;;;;;;9.40;8.80;;;;;;;;;;5115095;28;20521;-67
2022/07/21 12:42:31;;;;;;;9.85;9.15;;;;;;;;;;5116587;28;20201;-67
2022/07/21 12:44:58;;;;;;;9.25;8.55;;;;;;;;;;5115946;28;20206;-67
2022/07/21 12:47:26;;;;;;;8.57;7.97;;;;;;;;;;5115682;28;20206;-67
2022/07/21 12:50:02;;;;;;;8.50;7.90;;;;;;;;;;5114534;28;20202;-66
2022/07/21 12:52:31;;;;;;;7.90;7.30;;;;;;;;;;5114671;28;20210;-67
2022/07/21 12:54:58;;;;;;;7.72;7.07;;;;;;;;;;5115116;28;20301;-67
2022/07/21 12:57:27;;;;;;;10.73;7.15;;;;;;;;;;5115340;28;20202;-67
2022/07/21 12:59:55;;;;;;;7.00;6.50;;;;;;;;;;5114994;28;20229;-67
2022/07/21 13:02:22;;;;;;;7.00;6.50;;;;;;;;;;5114898;28;20203;-67
2022/07/21 13:04:50;;;;;;;6.65;6.05;;;;;;;;;;5114706;28;20252;-66
2022/07/21 13:07:19;;;;;;;7.13;6.53;;;;;;;;;;5114843;28;20202;-66
2022/07/21 13:09:46;;;;;;;6.97;6.38;;;;;;;;;;5113582;28;20594;-67
2022/07/21 13:12:13;;;;;;;6.70;6.20;;;;;;;;;;5114543;28;20214;-67
2022/07/21 13:14:41;;;;;;;6.32;5.93;;;;;;;;;;5117404;28;20259;-66
2022/07/21 13:17:08;;;;;;;6.80;6.30;;;;;;;;;;5119190;28;20217;-66
2022/07/21 13:19:37;;;;;;;6.38;5.97;;;;;;;;;;5119247;28;20305;-67
2022/07/21 13:22:05;;;;;;;6.55;6.05;;;;;;;;;;5119394;28;20199;-66
2022/07/21 13:24:33;;;;;;;6.55;6.03;;;;;;;;;;5119422;28;20256;-67
2022/07/21 13:27:01;;;;;;;6.18;5.78;;;;;;;;;;5118933;28;20210;-66
2022/07/21 13:29:28;;;;;;;6.13;5.72;;;;;;;;;;5138309;27;20245;-67
2022/07/21 13:31:55;;;;;;;6.10;5.60;;;;;;;;;;5139753;27;20309;-67
2022/07/21 13:34:22;;;;;;;5.97;5.57;;;;;;;;;;5138719;27;20209;-67
2022/07/21 13:36:50;;;;;;;6.15;5.65;;;;;;;;;;5140114;27;20293;-67
2022/07/21 13:39:17;;;;;;;6.15;5.75;;;;;;;;;;5139345;27;20243;-67
2022/07/21 13:41:46;;;;;;;6.13;5.70;;;;;;;;;;5139330;27;20258;-67
2022/07/21 13:44:13;;;;;;;6.03;5.63;;;;;;;;;;5139231;27;20368;-66
2022/07/21 13:46:41;;;;;;;6.38;5.88;;;;;;;;;;5138902;27;20274;-67
2022/07/21 13:49:08;;;;;;;5.63;5.22;;;;;;;;;;5139233;27;20206;-66
2022/07/21 13:51:35;;;;;;;5.68;5.18;;;;;;;;;;5139096;27;20736;-66
2022/07/21 13:54:02;;;;;;;6.00;5.50;;;;;;;;;;5138313;27;20254;-68
2022/07/21 13:56:30;;;;;;;5.60;5.18;;;;;;;;;;5139303;27;20270;-66
2022/07/21 13:58:59;;;;;;;5.50;5.10;;;;;;;;;;5138243;27;20216;-66
2022/07/21 14:01:28;;;;;;;6.05;5.55;;;;;;;;;;5138621;27;20223;-67
2022/07/21 14:03:55;;;;;;;6.07;5.63;;;;;;;;;;5138393;27;20198;-66
2022/07/21 14:06:23;;;;;;;5.60;5.20;;;;;;;;;;5138956;27;20283;-66
2022/07/21 14:08:50;;;;;;;5.03;4.72;;;;;;;;;;5138399;27;20209;-67
2022/07/21 14:11:18;;;;;;;5.82;5.43;;;;;;;;;;5138038;27;20222;-67
2022/07/21 14:13:45;;;;;;;5.20;4.90;;;;;;;;;;5137773;27;20273;-67
2022/07/21 14:16:14;;;;;;;6.15;5.63;;;;;;;;;;5138033;27;20334;-67
2022/07/21 14:18:41;;;;;;;5.65;5.20;;;;;;;;;;5137280;27;20194;-66
2022/07/21 14:21:09;;;;;;;5.43;5.03;;;;;;;;;;5138609;27;20204;-66
2022/07/21 14:23:36;;;;;;;5.50;5.10;;;;;;;;;;5137941;27;20198;-66
2022/07/21 14:26:03;;;;;;;5.65;5.25;;;;;;;;;;5133948;27;20206;-66
2022/07/21 14:28:31;;;;;;;5.43;5.03;;;;;;;;;;5117567;28;20589;-67
2022/07/21 14:30:59;;;;;;;5.30;4.90;;;;;;;;;;5118166;28;20242;-67
2022/07/21 14:33:28;;;;;;;4.75;4.45;;;;;;;;;;5117578;28;20218;-66
2022/07/21 14:35:56;;;;;;;5.15;4.82;;;;;;;;;;5117385;28;20267;-66
2022/07/21 14:38:23;;;;;;;5.03;4.63;;;;;;;;;;5116998;28;20203;-66
2022/07/21 14:40:51;;;;;;;5.15;4.75;;;;;;;;;;5117589;28;20198;-67
2022/07/21 14:43:18;;;;;;;5.32;4.82;;;;;;;;;;5117280;28;20726;-66
2022/07/21 14:45:46;;;;;;;4.53;4.22;;;;;;;;;;5117285;28;20272;-66
2022/07/21 14:48:13;;;;;;;4.93;4.63;;;;;;;;;;5116893;28;20781;-66
2022/07/21 14:50:42;;;;;;;4.95;4.63;;;;;;;;;;5117291;28;20303;-66
2022/07/21 14:53:10;;;;;;;4.60;4.30;;;;;;;;;;5117757;28;20203;-66